Time;durP1;ratioP1;P1;durP2;ratioP2;P2;SDS_P1;SDS_P2;PMS_P1;PMS_P2;Temp;Humidity;BMP_temperature;BMP_pressure;BME280_temperature;BME280_humidity;BME280_pressure;Samples;Min_cycle;Max_cycle;Signal;HPM_P1;HPM_P2
2021/08/21 00:00:40;;;;;;;10.23;8.10;;;17.70;99.90;;;;;;5057926;28;20791;-43
2021/08/21 00:03:08;;;;;;;10.60;7.20;;;17.70;99.90;;;;;;5057515;28;20470;-40
2021/08/21 00:05:36;;;;;;;7.93;7.13;;;17.70;99.90;;;;;;5057699;28;20542;-40
2021/08/21 00:08:03;;;;;;;8.87;6.83;;;17.70;99.90;;;;;;5058025;28;20759;-41
2021/08/21 00:10:30;;;;;;;8.30;7.17;;;17.70;99.90;;;;;;5057296;28;20479;-43
2021/08/21 00:12:57;;;;;;;10.17;7.60;;;17.70;99.90;;;;;;5057330;28;20443;-41
2021/08/21 00:15:24;;;;;;;8.03;7.20;;;17.80;99.90;;;;;;5057092;28;20432;-42
2021/08/21 00:17:51;;;;;;;8.40;7.00;;;17.70;99.90;;;;;;5057185;28;20548;-41
2021/08/21 00:20:19;;;;;;;9.17;7.00;;;17.70;99.90;;;;;;5057226;28;21101;-42
2021/08/21 00:22:47;;;;;;;9.50;6.87;;;17.70;99.90;;;;;;5056932;28;20455;-46
2021/08/21 00:25:14;;;;;;;7.33;6.20;;;17.70;99.90;;;;;;5057603;28;20467;-45
2021/08/21 00:27:42;;;;;;;7.80;6.50;;;17.70;99.90;;;;;;5057271;28;20443;-42
2021/08/21 00:30:10;;;;;;;7.90;6.23;;;17.70;99.90;;;;;;5057286;28;20495;-43
2021/08/21 00:32:38;;;;;;;8.73;7.30;;;17.70;99.90;;;;;;5057312;28;20504;-40
2021/08/21 00:35:05;;;;;;;9.50;6.50;;;17.60;99.90;;;;;;5057541;28;20593;-42
2021/08/21 00:37:32;;;;;;;7.37;6.67;;;17.70;99.90;;;;;;5057225;28;20475;-45
2021/08/21 00:40:00;;;;;;;8.63;7.10;;;17.60;99.90;;;;;;5056925;28;20447;-42
2021/08/21 00:42:27;;;;;;;7.60;6.30;;;17.60;99.90;;;;;;5056965;28;20459;-42
2021/08/21 00:44:53;;;;;;;7.77;5.93;;;17.60;99.90;;;;;;5056605;28;20458;-46
2021/08/21 00:47:21;;;;;;;7.33;6.43;;;17.60;99.90;;;;;;5056792;28;20444;-42
2021/08/21 00:49:50;;;;;;;7.40;6.40;;;17.60;99.90;;;;;;5048699;28;20514;-44
2021/08/21 00:52:18;;;;;;;8.17;6.83;;;17.60;99.90;;;;;;5048526;28;20962;-42
2021/08/21 00:54:45;;;;;;;10.03;7.10;;;17.60;99.90;;;;;;5047880;28;20448;-41
2021/08/21 00:57:14;;;;;;;9.20;7.07;;;17.60;99.90;;;;;;5044957;28;20476;-41
2021/08/21 00:59:42;;;;;;;6.83;6.13;;;17.70;99.90;;;;;;5048290;28;20514;-43
2021/08/21 01:02:10;;;;;;;7.60;6.30;;;17.70;99.90;;;;;;5047885;28;20946;-41
2021/08/21 01:04:39;;;;;;;7.57;6.77;;;17.70;99.90;;;;;;5044875;28;20498;-41
2021/08/21 01:07:07;;;;;;;10.30;6.80;;;17.70;99.90;;;;;;5044749;28;20471;-43
2021/08/21 01:09:36;;;;;;;8.50;7.10;;;17.70;99.90;;;;;;5046561;28;20479;-47
2021/08/21 01:12:04;;;;;;;9.80;7.20;;;17.70;99.90;;;;;;5043999;28;20443;-42
2021/08/21 01:14:32;;;;;;;7.87;6.70;;;17.70;99.90;;;;;;5046620;28;20435;-41
2021/08/21 01:16:59;;;;;;;9.20;7.37;;;17.80;99.90;;;;;;5047269;28;20487;-41
2021/08/21 01:19:27;;;;;;;8.60;7.10;;;17.80;99.90;;;;;;5047814;28;20440;-41
2021/08/21 01:21:53;;;;;;;9.90;6.27;;;17.80;99.90;;;;;;5044432;28;20958;-42
2021/08/21 01:24:20;;;;;;;10.57;6.87;;;17.80;99.90;;;;;;5046489;28;20452;-41
2021/08/21 01:26:51;;;;;;;7.87;6.57;;;17.80;99.90;;;;;;5044827;28;20448;-41
2021/08/21 01:29:18;;;;;;;8.57;6.70;;;17.80;99.90;;;;;;5045004;28;20446;-41
2021/08/21 01:31:45;;;;;;;8.10;6.93;;;17.80;99.90;;;;;;5047910;28;20440;-40
2021/08/21 01:34:12;;;;;;;8.00;6.33;;;17.80;99.90;;;;;;5044944;28;20490;-41
2021/08/21 01:36:40;;;;;;;10.27;7.47;;;17.80;99.90;;;;;;5045685;28;20497;-41
2021/08/21 01:39:07;;;;;;;11.20;7.17;;;17.80;99.90;;;;;;5046658;28;20507;-40
2021/08/21 01:41:34;;;;;;;7.00;6.30;;;17.80;99.90;;;;;;5046793;28;20501;-44
2021/08/21 01:44:02;;;;;;;8.00;6.80;;;17.70;99.90;;;;;;5046328;28;20460;-40
2021/08/21 01:46:28;;;;;;;8.93;7.40;;;17.70;99.90;;;;;;5044535;28;20825;-40
2021/08/21 01:48:55;;;;;;;8.47;7.00;;;17.70;99.90;;;;;;5045861;28;20498;-43
2021/08/21 01:51:23;;;;;;;8.10;6.70;;;17.70;99.90;;;;;;5043164;28;21057;-45
2021/08/21 01:53:51;;;;;;;7.83;5.90;;;17.70;99.90;;;;;;5043340;28;20989;-42
2021/08/21 01:56:18;;;;;;;12.57;6.53;;;17.70;99.90;;;;;;5053378;28;20471;-42
2021/08/21 01:58:45;;;;;;;7.43;6.10;;;17.70;99.90;;;;;;5041155;28;20536;-42
2021/08/21 02:17:46;;;;;;;9.27;6.10;;;17.70;99.90;;;;;;5262365;22;20489;-42
2021/08/21 02:25:24;;;;;;;7.23;6.37;;;17.70;99.90;;;;;;5741755;22;20960;-41
2021/08/21 02:27:58;;;;;;;6.77;5.77;;;17.70;99.90;;;;;;5045541;28;20446;-43
2021/08/21 02:30:25;;;;;;;8.07;6.40;;;17.70;99.90;;;;;;5039354;28;20454;-44
2021/08/21 02:32:54;;;;;;;8.40;7.13;;;17.70;99.90;;;;;;5043623;28;20456;-46
2021/08/21 02:35:21;;;;;;;7.63;6.63;;;17.70;99.90;;;;;;5042726;28;20498;-43
2021/08/21 02:37:47;;;;;;;8.97;7.00;;;17.70;99.90;;;;;;5044305;28;20479;-41
2021/08/21 02:40:14;;;;;;;8.43;7.30;;;17.70;99.90;;;;;;5043893;28;20511;-43
2021/08/21 02:42:41;;;;;;;7.93;6.50;;;17.70;99.90;;;;;;5043825;28;20451;-46
2021/08/21 02:45:09;;;;;;;7.50;6.80;;;17.70;99.90;;;;;;5045231;28;20862;-41
2021/08/21 02:47:36;;;;;;;7.47;6.70;;;17.70;99.90;;;;;;5044685;28;20443;-41
2021/08/21 02:50:05;;;;;;;7.03;6.13;;;17.70;99.90;;;;;;5044709;28;20451;-43
2021/08/21 02:52:31;;;;;;;6.40;5.50;;;17.70;99.90;;;;;;5050087;28;20447;-42
2021/08/21 02:54:58;;;;;;;6.43;5.83;;;17.70;99.90;;;;;;5055007;28;20444;-43
2021/08/21 02:57:25;;;;;;;7.10;6.40;;;17.70;99.90;;;;;;5054217;28;20504;-41
2021/08/21 02:59:51;;;;;;;8.50;6.47;;;17.70;99.90;;;;;;5055263;28;20447;-44
2021/08/21 03:02:18;;;;;;;7.60;6.17;;;17.60;99.90;;;;;;5054931;28;20443;-46
2021/08/21 03:04:45;;;;;;;8.37;6.80;;;17.60;99.90;;;;;;5030147;28;21040;-46
2021/08/21 03:07:13;;;;;;;7.50;6.70;;;17.50;99.90;;;;;;5034511;28;20507;-42
2021/08/21 03:09:39;;;;;;;8.33;7.37;;;17.50;99.90;;;;;;5039197;28;20444;-42
2021/08/21 03:12:06;;;;;;;7.87;6.40;;;17.40;99.90;;;;;;5041304;28;20452;-49
2021/08/21 03:14:33;;;;;;;7.63;6.20;;;17.40;99.90;;;;;;5040925;28;20513;-44
2021/08/21 03:17:00;;;;;;;11.07;6.53;;;17.30;99.90;;;;;;5039744;28;20448;-45
2021/08/21 03:19:26;;;;;;;9.03;8.03;;;17.30;99.90;;;;;;5038389;28;20455;-45
2021/08/21 03:21:53;;;;;;;8.47;6.90;;;17.30;99.90;;;;;;5038358;28;20502;-41
2021/08/21 03:24:21;;;;;;;7.60;6.87;;;17.20;99.90;;;;;;5038417;28;20509;-41
2021/08/21 03:26:48;;;;;;;10.07;8.43;;;17.20;99.90;;;;;;5038031;28;20995;-41
2021/08/21 03:29:15;;;;;;;10.47;7.43;;;17.10;99.90;;;;;;5037615;28;20518;-42
2021/08/21 03:31:41;;;;;;;9.00;7.43;;;17.10;99.90;;;;;;5039535;28;20460;-40
2021/08/21 03:34:08;;;;;;;10.83;8.53;;;17.10;99.90;;;;;;5041552;28;20444;-40
2021/08/21 03:36:34;;;;;;;10.23;7.63;;;17.10;99.90;;;;;;5043811;28;20439;-45
2021/08/21 03:39:01;;;;;;;9.00;7.30;;;17.10;99.90;;;;;;5042885;28;20484;-42
2021/08/21 03:41:29;;;;;;;10.47;8.07;;;17.00;99.90;;;;;;5040043;28;20456;-44
2021/08/21 03:43:56;;;;;;;8.40;7.10;;;17.00;99.90;;;;;;5038801;28;20448;-42
2021/08/21 03:46:23;;;;;;;11.90;7.10;;;16.90;99.90;;;;;;5039263;28;20921;-41
2021/08/21 03:48:49;;;;;;;9.80;8.80;;;16.90;99.90;;;;;;5039298;28;20452;-44
2021/08/21 03:51:16;;;;;;;9.90;8.80;;;16.90;99.90;;;;;;5039672;28;20525;-41
2021/08/21 03:53:43;;;;;;;10.37;9.00;;;16.90;99.90;;;;;;5040127;28;20505;-42
2021/08/21 03:56:09;;;;;;;10.70;8.70;;;16.80;99.90;;;;;;5039676;28;20510;-40
2021/08/21 03:58:37;;;;;;;8.30;7.10;;;16.80;99.90;;;;;;5040023;28;20871;-42
2021/08/21 04:01:04;;;;;;;9.60;8.23;;;16.80;99.90;;;;;;5040088;28;20517;-41
2021/08/21 04:03:30;;;;;;;10.13;9.07;;;16.80;99.90;;;;;;5040543;28;20491;-40
2021/08/21 04:05:57;;;;;;;11.07;8.20;;;16.80;99.90;;;;;;5040272;28;20505;-42
2021/08/21 04:08:24;;;;;;;10.50;8.37;;;16.80;99.90;;;;;;5040353;28;20440;-43
2021/08/21 04:10:50;;;;;;;11.60;9.03;;;16.80;99.90;;;;;;5039506;28;20440;-46
2021/08/21 04:13:17;;;;;;;8.10;7.00;;;16.80;99.90;;;;;;5039468;28;20482;-44
2021/08/21 04:15:45;;;;;;;11.00;7.77;;;16.80;99.90;;;;;;5038814;28;20479;-44
2021/08/21 04:18:12;;;;;;;9.83;7.30;;;16.70;99.90;;;;;;5038620;28;20511;-42
2021/08/21 04:20:39;;;;;;;9.63;8.07;;;16.80;99.90;;;;;;5037968;28;20456;-44
2021/08/21 04:23:05;;;;;;;10.07;9.00;;;16.70;99.90;;;;;;5039898;28;20444;-43
2021/08/21 04:25:32;;;;;;;8.60;7.07;;;16.70;99.90;;;;;;5038873;28;20846;-41
2021/08/21 04:27:59;;;;;;;11.33;8.80;;;16.70;99.90;;;;;;5039642;28;20460;-42
2021/08/21 04:30:25;;;;;;;9.63;7.63;;;16.70;99.90;;;;;;5039490;28;20451;-44
2021/08/21 04:32:53;;;;;;;11.47;8.60;;;16.70;99.90;;;;;;5039636;28;20447;-44
2021/08/21 04:35:20;;;;;;;11.23;8.80;;;16.70;99.90;;;;;;5039809;28;20967;-41
2021/08/21 04:37:47;;;;;;;9.90;8.17;;;16.80;99.90;;;;;;5039379;28;20496;-41
2021/08/21 04:40:14;;;;;;;8.90;8.00;;;16.80;99.90;;;;;;5039609;28;20440;-47
2021/08/21 04:42:41;;;;;;;11.17;9.07;;;16.80;99.90;;;;;;5039639;28;20448;-41
2021/08/21 04:45:08;;;;;;;10.43;8.90;;;16.80;99.90;;;;;;5038784;28;20526;-42
2021/08/21 04:47:35;;;;;;;11.20;9.63;;;16.80;99.90;;;;;;5039751;28;20448;-42
2021/08/21 04:50:05;;;;;;;11.17;8.83;;;16.90;99.90;;;;;;5040114;28;20444;-41
2021/08/21 04:52:31;;;;;;;12.83;8.70;;;16.90;99.90;;;;;;5039042;28;20447;-42
2021/08/21 04:54:58;;;;;;;9.57;8.33;;;16.90;99.90;;;;;;5039125;28;20464;-41
2021/08/21 04:57:25;;;;;;;10.30;8.57;;;17.00;99.90;;;;;;5038822;28;20459;-42
2021/08/21 04:59:52;;;;;;;9.90;8.83;;;17.00;99.90;;;;;;5038419;28;20483;-46
2021/08/21 05:02:18;;;;;;;13.83;9.30;;;17.10;99.90;;;;;;5038615;28;20468;-43
2021/08/21 05:04:45;;;;;;;10.67;9.13;;;17.20;99.90;;;;;;5038771;28;20448;-44
2021/08/21 05:07:13;;;;;;;11.67;9.20;;;17.20;99.90;;;;;;5039304;28;20476;-42
2021/08/21 05:09:40;;;;;;;10.83;9.07;;;17.30;99.90;;;;;;5039046;28;20498;-41
2021/08/21 05:12:07;;;;;;;10.20;8.70;;;17.40;99.90;;;;;;5038810;28;20436;-43
2021/08/21 05:14:34;;;;;;;11.13;8.07;;;17.40;99.90;;;;;;5038707;28;20444;-42
2021/08/21 05:17:00;;;;;;;10.13;8.80;;;17.50;99.90;;;;;;5039277;28;20510;-42
2021/08/21 05:19:32;;;;;;;13.57;10.43;;;17.50;99.90;;;;;;5038620;28;20638;-42
2021/08/21 05:22:09;;;;;;;11.20;9.43;;;17.50;99.90;;;;;;5039047;28;20452;-41
2021/08/21 05:24:37;;;;;;;11.13;9.27;;;17.50;99.90;;;;;;5038990;28;20520;-43
2021/08/21 05:27:05;;;;;;;11.43;9.37;;;17.50;99.90;;;;;;5038542;28;20448;-42
2021/08/21 05:29:32;;;;;;;10.90;9.70;;;17.50;99.90;;;;;;5038782;28;20444;-42
2021/08/21 05:32:00;;;;;;;11.83;8.40;;;17.50;99.90;;;;;;5038534;28;20444;-41
2021/08/21 05:34:26;;;;;;;12.17;8.50;;;17.70;99.90;;;;;;5038948;28;20987;-42
2021/08/21 05:36:53;;;;;;;11.20;9.40;;;17.70;99.90;;;;;;5038623;28;20459;-42
2021/08/21 05:39:20;;;;;;;11.90;9.57;;;17.80;99.90;;;;;;5038750;28;20538;-42
2021/08/21 05:41:48;;;;;;;13.30;10.83;;;17.80;99.90;;;;;;5038978;28;20451;-42
2021/08/21 05:44:15;;;;;;;12.97;11.43;;;17.80;99.90;;;;;;5038230;28;20456;-41
2021/08/21 05:46:41;;;;;;;10.80;9.70;;;17.80;99.90;;;;;;5038248;28;20762;-42
2021/08/21 05:49:08;;;;;;;13.83;9.90;;;17.90;99.90;;;;;;5038650;28;20470;-42
2021/08/21 05:51:35;;;;;;;16.90;10.33;;;17.90;99.90;;;;;;5038716;28;20460;-42
2021/08/21 05:54:01;;;;;;;11.20;9.20;;;18.00;99.90;;;;;;5038429;28;20517;-42
2021/08/21 05:56:28;;;;;;;10.30;8.97;;;18.10;99.90;;;;;;5037552;28;20505;-44
2021/08/21 05:58:56;;;;;;;9.40;8.10;;;18.30;99.90;;;;;;5037480;28;20553;-43
2021/08/21 06:01:23;;;;;;;12.67;10.70;;;18.40;99.90;;;;;;5038979;28;20440;-48
2021/08/21 06:03:51;;;;;;;11.00;9.57;;;18.50;99.90;;;;;;5038168;28;20507;-42
2021/08/21 06:06:19;;;;;;;10.77;8.93;;;18.50;99.90;;;;;;5037826;28;20459;-41
2021/08/21 06:08:46;;;;;;;9.77;8.00;;;18.60;99.90;;;;;;5037856;28;20445;-41
2021/08/21 06:11:13;;;;;;;12.43;9.17;;;18.80;99.90;;;;;;5037132;28;20502;-42
2021/08/21 06:13:40;;;;;;;12.50;9.03;;;18.80;99.90;;;;;;5036734;28;20436;-41
2021/08/21 06:16:08;;;;;;;10.37;8.67;;;18.90;99.90;;;;;;5036804;28;20474;-41
2021/08/21 06:18:35;;;;;;;10.87;8.60;;;18.80;99.90;;;;;;5036614;28;20972;-44
2021/08/21 06:21:02;;;;;;;9.53;7.80;;;18.90;99.90;;;;;;5037260;28;20924;-42
2021/08/21 06:23:29;;;;;;;14.93;10.70;;;18.90;99.90;;;;;;5037853;28;20448;-42
2021/08/21 06:25:56;;;;;;;9.83;8.83;;;18.90;99.90;;;;;;5037306;28;20486;-42
2021/08/21 06:28:23;;;;;;;11.87;9.40;;;19.00;99.90;;;;;;5036642;28;20502;-44
2021/08/21 06:30:49;;;;;;;13.33;9.67;;;19.10;99.90;;;;;;5036811;28;20494;-42
2021/08/21 06:33:18;;;;;;;10.57;8.90;;;19.10;99.90;;;;;;5036805;28;20847;-43
2021/08/21 06:35:44;;;;;;;13.33;9.00;;;19.10;99.90;;;;;;5036445;28;20509;-43
2021/08/21 06:38:11;;;;;;;10.10;8.73;;;19.20;99.90;;;;;;5036865;28;20821;-44
2021/08/21 06:40:38;;;;;;;9.40;8.50;;;19.20;99.90;;;;;;5036402;28;20478;-43
2021/08/21 06:43:05;;;;;;;11.70;8.00;;;19.40;99.90;;;;;;5036603;28;20460;-45
2021/08/21 06:45:32;;;;;;;11.40;7.90;;;19.60;99.90;;;;;;5039931;28;20506;-44
2021/08/21 06:47:59;;;;;;;10.87;8.17;;;19.60;99.90;;;;;;5040530;28;20455;-41
2021/08/21 06:50:33;;;;;;;11.13;8.90;;;19.70;99.90;;;;;;5039904;28;20448;-41
2021/08/21 06:53:00;;;;;;;8.17;6.60;;;19.90;99.90;;;;;;5040194;28;20443;-41
2021/08/21 06:55:27;;;;;;;11.07;8.60;;;20.00;99.90;;;;;;5039572;28;20452;-45
2021/08/21 06:57:54;;;;;;;10.07;8.90;;;20.10;99.90;;;;;;5039851;28;20444;-46
2021/08/21 07:00:21;;;;;;;14.07;9.47;;;20.20;99.90;;;;;;5040046;28;20518;-43
2021/08/21 07:02:47;;;;;;;9.63;7.50;;;20.20;99.90;;;;;;5040245;28;20444;-44
2021/08/21 07:05:14;;;;;;;10.83;8.80;;;20.30;99.90;;;;;;5040411;28;20506;-42
2021/08/21 07:07:42;;;;;;;8.27;7.43;;;20.40;99.90;;;;;;5040408;28;20514;-43
2021/08/21 07:10:10;;;;;;;10.23;8.17;;;20.60;99.90;;;;;;5040555;28;20475;-41
2021/08/21 07:12:36;;;;;;;10.13;8.03;;;20.70;99.90;;;;;;5040321;28;20447;-42
2021/08/21 07:15:03;;;;;;;9.47;8.00;;;20.90;99.90;;;;;;5039926;28;20455;-45
2021/08/21 07:17:30;;;;;;;8.93;7.50;;;21.00;99.90;;;;;;5039646;28;20666;-43
2021/08/21 07:19:56;;;;;;;10.10;6.70;;;21.20;99.90;;;;;;5039382;28;20838;-42
2021/08/21 07:22:23;;;;;;;10.07;8.43;;;21.40;99.90;;;;;;5039741;28;20444;-42
2021/08/21 07:24:51;;;;;;;12.30;8.03;;;21.50;99.90;;;;;;5039742;28;20822;-42
2021/08/21 07:27:18;;;;;;;9.30;7.70;;;21.70;99.90;;;;;;5039489;28;20447;-41
2021/08/21 07:29:44;;;;;;;8.70;7.80;;;21.80;99.90;;;;;;5039717;28;20818;-46
2021/08/21 07:32:11;;;;;;;10.90;6.43;;;22.00;99.90;;;;;;5039891;28;20505;-42
2021/08/21 07:34:40;;;;;;;8.53;6.90;;;22.10;99.90;;;;;;5039483;28;20463;-41
2021/08/21 07:37:07;;;;;;;7.83;7.03;;;22.20;99.90;;;;;;5039791;28;20445;-42
2021/08/21 07:39:34;;;;;;;8.10;6.67;;;22.40;99.90;;;;;;5039088;28;20549;-42
2021/08/21 07:42:02;;;;;;;8.37;7.50;;;22.40;99.90;;;;;;5039416;28;20510;-42
2021/08/21 07:44:29;;;;;;;8.70;6.93;;;22.40;99.90;;;;;;5039113;28;20816;-41
2021/08/21 07:46:55;;;;;;;8.47;6.07;;;22.50;99.90;;;;;;5039232;28;20440;-42
2021/08/21 07:49:22;;;;;;;6.73;5.83;;;22.40;99.90;;;;;;5039375;28;20467;-41
2021/08/21 07:51:49;;;;;;;5.80;5.20;;;22.50;99.90;;;;;;5030699;28;20464;-42
2021/08/21 07:54:15;;;;;;;14.57;8.83;;;22.60;99.90;;;;;;5038932;28;20444;-41
2021/08/21 07:56:42;;;;;;;7.07;6.30;;;22.70;99.90;;;;;;5037387;28;20452;-41
2021/08/21 07:59:10;;;;;;;6.10;5.50;;;22.90;99.90;;;;;;5038750;28;20534;-42
2021/08/21 08:01:37;;;;;;;8.63;6.70;;;23.00;99.90;;;;;;5038686;28;20444;-42
2021/08/21 08:04:04;;;;;;;8.37;6.63;;;23.10;99.90;;;;;;5037949;28;20933;-41
2021/08/21 08:06:31;;;;;;;6.63;6.00;;;23.20;99.90;;;;;;5038524;28;20448;-43
2021/08/21 08:08:57;;;;;;;9.00;5.90;;;24.20;99.90;;;;;;5038086;28;20517;-42
2021/08/21 08:11:24;;;;;;;5.53;5.03;;;25.40;99.90;;;;;;5037830;28;20506;-43
2021/08/21 08:13:50;;;;;;;6.83;5.50;;;26.90;99.90;;;;;;5037468;28;20453;-47
2021/08/21 08:16:19;;;;;;;5.97;5.37;;;28.20;99.90;;;;;;5037246;28;20502;-44
2021/08/21 08:18:45;;;;;;;5.93;5.33;;;29.40;99.90;;;;;;5036630;28;20936;-42
2021/08/21 08:21:14;;;;;;;6.10;5.50;;;30.40;94.30;;;;;;5037169;28;20452;-44
2021/08/21 08:23:42;;;;;;;6.20;5.60;;;31.30;89.20;;;;;;5036791;28;20444;-44
2021/08/21 08:26:08;;;;;;;7.90;6.63;;;31.80;82.30;;;;;;5036334;28;20480;-42
2021/08/21 08:28:35;;;;;;;6.00;5.27;;;31.60;78.60;;;;;;5036268;28;20451;-49
2021/08/21 08:31:01;;;;;;;7.00;6.30;;;31.40;77.60;;;;;;5036188;28;20851;-43
2021/08/21 08:33:29;;;;;;;5.00;4.50;;;30.90;76.70;;;;;;5035796;28;20472;-42
2021/08/21 08:35:56;;;;;;;7.53;6.47;;;30.10;78.40;;;;;;5035922;28;20451;-43
2021/08/21 08:38:23;;;;;;;7.50;6.60;;;28.90;80.10;;;;;;5036261;28;20440;-42
2021/08/21 08:40:50;;;;;;;6.33;5.73;;;28.80;83.10;;;;;;5036616;28;20475;-45
2021/08/21 08:43:19;;;;;;;6.13;5.50;;;29.00;81.70;;;;;;5036474;28;20460;-42
2021/08/21 08:45:46;;;;;;;7.57;6.27;;;28.90;82.80;;;;;;5036999;28;20444;-42
2021/08/21 08:48:14;;;;;;;6.97;6.20;;;28.60;83.60;;;;;;5035949;28;20837;-50
2021/08/21 08:50:43;;;;;;;8.03;7.23;;;28.10;84.70;;;;;;5035843;28;20463;-49
2021/08/21 08:53:10;;;;;;;6.43;5.83;;;27.50;87.20;;;;;;5036074;28;20746;-44
2021/08/21 08:55:36;;;;;;;7.40;5.77;;;26.80;90.20;;;;;;5036232;28;20538;-42
2021/08/21 08:58:04;;;;;;;7.70;5.53;;;26.80;91.60;;;;;;5036623;28;20490;-43
2021/08/21 09:00:30;;;;;;;7.70;5.60;;;27.90;90.80;;;;;;5036355;28;20480;-42
2021/08/21 09:02:58;;;;;;;8.13;6.80;;;29.20;86.50;;;;;;5036602;28;20738;-41
2021/08/21 09:05:27;;;;;;;6.50;5.70;;;30.20;82.00;;;;;;5036163;28;20443;-44
2021/08/21 09:07:57;;;;;;;6.10;5.40;;;31.10;77.40;;;;;;5035375;28;20972;-48
2021/08/21 09:10:25;;;;;;;6.33;5.10;;;31.80;74.00;;;;;;5035952;28;20441;-40
2021/08/21 09:13:03;;;;;;;7.73;6.53;;;32.30;72.60;;;;;;5035654;28;20514;-42
2021/08/21 09:15:32;;;;;;;6.30;5.43;;;32.70;68.80;;;;;;5035867;28;20800;-43
2021/08/21 09:18:05;;;;;;;8.40;6.10;;;32.40;67.40;;;;;;5034984;28;20464;-41
2021/08/21 09:20:32;;;;;;;6.40;5.70;;;31.40;69.30;;;;;;5034918;28;20494;-43
2021/08/21 09:23:22;;;;;;;5.57;4.87;;;30.40;72.30;;;;;;5035304;28;20510;-46
2021/08/21 09:25:50;;;;;;;5.33;4.50;;;30.10;75.70;;;;;;5034820;28;20571;-41
2021/08/21 09:28:19;;;;;;;8.03;4.97;;;29.90;74.50;;;;;;5035067;28;20510;-41
2021/08/21 09:30:47;;;;;;;5.03;4.53;;;29.70;74.10;;;;;;5034972;28;20445;-45
2021/08/21 09:33:17;;;;;;;4.80;4.40;;;30.30;73.50;;;;;;5035149;28;20502;-41
2021/08/21 09:35:44;;;;;;;4.87;4.47;;;30.80;71.50;;;;;;5035708;28;20830;-44
2021/08/21 09:38:11;;;;;;;5.73;5.23;;;31.10;70.00;;;;;;5034926;28;20452;-44
2021/08/21 09:40:41;;;;;;;6.70;5.63;;;31.50;69.40;;;;;;5035240;28;20480;-41
2021/08/21 09:43:16;;;;;;;5.30;4.80;;;31.90;68.70;;;;;;5035654;28;20505;-42
2021/08/21 09:45:43;;;;;;;7.60;5.30;;;31.90;67.80;;;;;;5035198;28;20470;-42
2021/08/21 09:48:10;;;;;;;7.10;5.13;;;32.00;67.70;;;;;;5035272;28;20444;-43
2021/08/21 09:50:38;;;;;;;6.80;5.93;;;32.00;68.10;;;;;;5035139;28;20445;-49
2021/08/21 09:53:06;;;;;;;6.73;5.43;;;32.30;65.20;;;;;;5034882;28;20912;-50
2021/08/21 09:55:34;;;;;;;6.10;5.50;;;31.70;65.30;;;;;;5034324;28;20463;-41
2021/08/21 09:58:04;;;;;;;5.80;4.70;;;30.60;68.20;;;;;;5034529;28;20528;-41
2021/08/21 10:00:32;;;;;;;5.20;4.77;;;29.80;70.20;;;;;;5034762;28;20530;-43
2021/08/21 10:03:00;;;;;;;6.00;5.50;;;29.10;72.70;;;;;;5034836;28;21390;-43
2021/08/21 10:05:27;;;;;;;4.40;4.00;;;28.30;74.80;;;;;;5034691;28;20487;-46
2021/08/21 10:07:58;;;;;;;5.67;4.20;;;27.60;76.40;;;;;;5034723;28;20440;-42
2021/08/21 10:10:32;;;;;;;4.50;4.10;;;27.00;79.20;;;;;;5034796;28;20821;-41
2021/08/21 10:13:08;;;;;;;5.50;4.50;;;26.80;81.80;;;;;;5035628;28;20463;-41
2021/08/21 10:15:38;;;;;;;5.90;4.73;;;27.40;83.30;;;;;;5034934;28;20454;-47
2021/08/21 10:18:05;;;;;;;8.03;5.50;;;28.10;81.50;;;;;;5034486;28;20452;-42
2021/08/21 10:20:32;;;;;;;7.10;5.03;;;28.70;80.50;;;;;;5034727;28;20494;-47
2021/08/21 10:23:05;;;;;;;6.33;4.63;;;29.40;79.10;;;;;;5034740;28;20841;-45
2021/08/21 10:25:31;;;;;;;7.23;5.03;;;30.10;76.10;;;;;;5035148;28;20952;-44
2021/08/21 10:28:02;;;;;;;6.53;4.77;;;30.20;73.00;;;;;;5034716;28;20482;-42
2021/08/21 10:30:44;;;;;;;4.47;4.07;;;30.20;73.10;;;;;;5035078;28;20444;-46
2021/08/21 10:33:12;;;;;;;8.30;5.30;;;30.10;73.60;;;;;;5034812;28;20441;-42
2021/08/21 10:35:47;;;;;;;5.10;4.60;;;30.10;73.50;;;;;;5034674;28;20930;-42
2021/08/21 10:38:33;;;;;;;4.53;4.13;;;29.60;74.00;;;;;;5034318;28;20432;-42
2021/08/21 10:41:02;;;;;;;6.80;4.90;;;28.90;75.40;;;;;;5034471;28;20488;-44
2021/08/21 10:43:44;;;;;;;5.20;4.70;;;28.30;77.80;;;;;;5034280;28;20451;-44
2021/08/21 10:46:13;;;;;;;8.70;5.17;;;27.70;79.20;;;;;;5034520;28;20800;-41
2021/08/21 10:48:54;;;;;;;6.93;6.03;;;27.00;80.50;;;;;;5034511;28;20509;-44
2021/08/21 10:51:37;;;;;;;5.37;4.60;;;26.50;83.60;;;;;;5034602;28;20472;-44
2021/08/21 10:54:41;;;;;;;5.20;4.70;;;26.50;85.80;;;;;;5035095;28;20473;-45
2021/08/21 10:57:29;;;;;;;5.93;4.40;;;26.90;86.10;;;;;;5034331;28;20816;-44
2021/08/21 10:59:56;;;;;;;4.93;4.43;;;27.20;84.20;;;;;;5034635;28;20538;-42
2021/08/21 11:02:45;;;;;;;8.33;5.97;;;27.30;84.40;;;;;;5034772;28;20461;-41
2021/08/21 11:05:56;;;;;;;4.63;4.20;;;27.60;83.70;;;;;;5034835;28;20843;-42
2021/08/21 11:08:24;;;;;;;6.37;4.50;;;27.90;83.40;;;;;;4998747;28;20456;-44
2021/08/21 11:11:29;;;;;;;4.60;4.10;;;27.70;82.30;;;;;;5034689;28;20452;-44
2021/08/21 11:13:59;;;;;;;4.50;4.10;;;27.90;81.70;;;;;;5030889;28;20463;-46
2021/08/21 11:17:00;;;;;;;3.90;3.50;;;28.10;82.60;;;;;;5034663;28;20444;-50
2021/08/21 11:19:37;;;;;;;5.13;4.63;;;28.20;80.60;;;;;;5034057;28;20444;-42
2021/08/21 11:22:19;;;;;;;4.40;4.00;;;28.10;80.80;;;;;;5034272;28;20455;-41
2021/08/21 11:25:09;;;;;;;5.53;5.03;;;28.10;81.10;;;;;;5033976;28;20483;-42
2021/08/21 11:27:43;;;;;;;5.30;3.90;;;28.00;80.80;;;;;;5034529;28;20522;-42
2021/08/21 11:30:28;;;;;;;4.70;3.77;;;27.70;81.50;;;;;;5035480;28;20848;-44
2021/08/21 11:33:03;;;;;;;5.17;3.60;;;27.50;81.30;;;;;;5037972;28;20885;-49
2021/08/21 11:35:35;;;;;;;5.40;3.83;;;27.20;81.80;;;;;;5038626;28;20432;-42
2021/08/21 11:38:04;;;;;;;3.73;3.40;;;26.80;83.10;;;;;;5037943;28;20456;-46
2021/08/21 11:40:37;;;;;;;4.23;3.83;;;26.40;84.00;;;;;;5037244;28;20988;-44
2021/08/21 11:43:05;;;;;;;4.87;3.80;;;25.90;85.50;;;;;;5037659;28;20452;-45
2021/08/21 11:45:33;;;;;;;5.20;3.80;;;25.70;87.10;;;;;;5037663;28;20466;-48
2021/08/21 11:47:59;;;;;;;3.77;3.40;;;25.70;88.30;;;;;;5037859;28;20513;-44
2021/08/21 11:50:30;;;;;;;3.70;3.40;;;25.90;89.10;;;;;;5037435;28;20440;-46
2021/08/21 11:53:01;;;;;;;3.63;3.33;;;26.10;87.20;;;;;;5037293;28;20909;-44
2021/08/21 11:55:29;;;;;;;4.40;3.87;;;26.10;86.40;;;;;;5037492;28;20440;-47
2021/08/21 11:57:56;;;;;;;6.50;4.67;;;26.10;87.10;;;;;;5037100;28;20448;-45
2021/08/21 12:00:26;;;;;;;4.23;3.70;;;26.20;87.60;;;;;;5037560;28;20534;-44
2021/08/21 12:02:55;;;;;;;4.03;3.40;;;26.00;86.50;;;;;;5036952;28;20460;-44
2021/08/21 12:05:38;;;;;;;6.17;4.13;;;25.80;86.20;;;;;;5037184;28;20452;-43
2021/08/21 12:08:17;;;;;;;4.10;3.70;;;25.60;88.10;;;;;;5037142;28;20448;-43
2021/08/21 12:10:46;;;;;;;6.03;3.87;;;25.50;88.60;;;;;;5037016;28;20467;-44
2021/08/21 12:13:14;;;;;;;11.60;4.33;;;25.50;89.70;;;;;;5037484;28;20454;-45
2021/08/21 12:15:42;;;;;;;8.60;3.53;;;25.60;89.60;;;;;;5037220;28;20444;-45
2021/08/21 12:18:09;;;;;;;5.83;3.97;;;25.90;89.00;;;;;;5037234;28;20465;-47
2021/08/21 12:20:37;;;;;;;6.13;3.17;;;25.90;88.60;;;;;;5037169;28;20534;-42
2021/08/21 12:23:06;;;;;;;4.23;2.77;;;26.20;87.30;;;;;;5037550;28;20824;-46
2021/08/21 12:25:46;;;;;;;4.20;3.80;;;26.20;86.90;;;;;;5037111;28;20480;-44
2021/08/21 12:28:14;;;;;;;4.57;3.97;;;26.10;87.70;;;;;;5036755;28;20829;-45
2021/08/21 12:30:40;;;;;;;4.67;3.47;;;26.10;87.90;;;;;;5036441;28;20448;-46
2021/08/21 12:33:11;;;;;;;4.03;3.37;;;26.00;87.70;;;;;;5036894;28;20471;-41
2021/08/21 12:35:37;;;;;;;5.90;3.57;;;25.90;88.20;;;;;;5036749;28;20510;-42
2021/08/21 12:38:06;;;;;;;4.00;3.37;;;25.80;88.90;;;;;;5036875;28;20448;-47
2021/08/21 12:40:33;;;;;;;4.17;3.77;;;25.70;89.30;;;;;;5036714;28;20514;-44
2021/08/21 12:43:05;;;;;;;6.20;3.70;;;25.70;89.20;;;;;;5036108;28;20826;-42
2021/08/21 12:45:41;;;;;;;4.40;3.70;;;25.60;88.90;;;;;;5036375;28;20460;-48
2021/08/21 12:48:09;;;;;;;4.07;3.67;;;25.60;89.30;;;;;;5036536;28;20439;-45
2021/08/21 12:50:41;;;;;;;4.13;3.60;;;25.60;89.30;;;;;;5036577;28;20452;-48
2021/08/21 12:53:08;;;;;;;3.90;3.60;;;25.60;90.10;;;;;;5036249;28;20882;-43
2021/08/21 12:55:35;;;;;;;3.80;3.40;;;25.60;89.40;;;;;;5036143;28;20452;-41
2021/08/21 12:58:10;;;;;;;4.40;3.40;;;25.60;89.90;;;;;;5036167;28;20459;-48
2021/08/21 13:00:39;;;;;;;3.50;3.00;;;25.70;88.80;;;;;;5036184;28;20482;-46
2021/08/21 13:03:17;;;;;;;3.63;3.20;;;25.70;88.40;;;;;;5036069;28;20448;-43
2021/08/21 13:05:55;;;;;;;5.00;3.80;;;25.70;88.30;;;;;;5036134;28;20447;-44
2021/08/21 13:08:33;;;;;;;3.87;2.83;;;25.70;88.80;;;;;;5036255;28;20478;-43
2021/08/21 13:11:01;;;;;;;3.77;3.43;;;25.80;89.80;;;;;;5036415;28;20897;-43
2021/08/21 13:13:29;;;;;;;3.67;3.10;;;25.90;88.60;;;;;;5035838;28;20824;-43